Time;durP1;ratioP1;P1;durP2;ratioP2;P2;SDS_P1;SDS_P2;PMS_P1;PMS_P2;Temp;Humidity;BMP_temperature;BMP_pressure;BME280_temperature;BME280_humidity;BME280_pressure;Samples;Min_cycle;Max_cycle;Signal;HPM_P1;HPM_P2
2023/06/11 00:01:50;;;;;;;6.03;3.70;;;;;;;-145.41;100.00;58600.66;4967422;28;20039;-80
2023/06/11 00:04:19;;;;;;;6.47;3.47;;;;;;;-145.41;100.00;58600.66;4982745;28;20050;-78
2023/06/11 00:06:45;;;;;;;8.48;3.72;;;;;;;-145.41;100.00;58600.66;4959417;28;20110;-79
2023/06/11 00:09:11;;;;;;;5.43;3.42;;;;;;;-145.41;100.00;58600.66;4977388;28;20527;-79
2023/06/11 00:11:41;;;;;;;8.60;3.33;;;;;;;-145.41;100.00;58600.66;4976473;28;20050;-80
2023/06/11 00:14:08;;;;;;;10.60;4.32;;;;;;;-145.41;100.00;58600.66;4979271;28;20506;-79
2023/06/11 00:16:34;;;;;;;11.65;3.90;;;;;;;-145.41;100.00;58600.66;4966565;28;20027;-79
2023/06/11 00:18:59;;;;;;;7.50;3.55;;;;;;;-145.41;100.00;58600.66;4972738;28;20137;-78
2023/06/11 00:21:25;;;;;;;6.45;3.78;;;;;;;-145.41;100.00;58600.66;4971578;28;20126;-79
2023/06/11 00:23:50;;;;;;;7.72;4.03;;;;;;;-145.41;100.00;58600.66;4980770;28;20053;-79
2023/06/11 00:26:16;;;;;;;9.05;3.47;;;;;;;-145.41;100.00;58600.66;4984647;28;20053;-79
2023/06/11 00:28:41;;;;;;;5.72;3.55;;;;;;;-145.41;100.00;58600.66;4973035;28;20050;-78
2023/06/11 00:31:07;;;;;;;4.95;3.08;;;;;;;-145.41;100.00;58600.66;4962255;28;20101;-79
2023/06/11 00:33:32;;;;;;;6.97;3.88;;;;;;;-145.41;100.00;58600.66;4959233;28;20039;-80
2023/06/11 00:35:58;;;;;;;5.30;3.05;;;;;;;-145.41;100.00;58600.66;4982916;28;20046;-78
2023/06/11 00:38:23;;;;;;;9.10;3.22;;;;;;;-145.41;100.00;58600.66;4975018;28;20031;-78
2023/06/11 00:40:49;;;;;;;5.35;3.65;;;;;;;-145.41;100.00;58600.66;4956187;28;20077;-79
2023/06/11 00:43:21;;;;;;;7.43;3.92;;;;;;;-145.41;100.00;58600.66;4978151;28;20070;-79
2023/06/11 00:45:47;;;;;;;6.35;3.75;;;;;;;-145.41;100.00;58600.66;4957800;28;20092;-79
2023/06/11 00:48:12;;;;;;;7.95;3.90;;;;;;;-145.41;100.00;58600.66;4973611;28;20035;-79
2023/06/11 00:50:45;;;;;;;5.97;3.60;;;;;;;-145.41;100.00;58600.66;4951550;28;20026;-79
2023/06/11 00:53:14;;;;;;;6.80;3.70;;;;;;;-145.41;100.00;58600.66;4939305;28;20498;-78
2023/06/11 00:55:40;;;;;;;7.57;3.75;;;;;;;-145.41;100.00;58600.66;4980154;28;20035;-79
2023/06/11 00:58:13;;;;;;;10.57;3.90;;;;;;;-145.41;100.00;58600.66;4978650;28;20214;-78
2023/06/11 01:00:45;;;;;;;7.68;3.53;;;;;;;-145.41;100.00;58600.66;4975088;28;20035;-80
2023/06/11 01:03:12;;;;;;;;;;;;;;;-145.41;100.00;58600.66;4976033;28;20062;-80
2023/06/11 01:05:43;;;;;;;5.13;3.13;;;;;;;-145.41;100.00;58600.66;4979927;28;20020;-80
2023/06/11 01:08:12;;;;;;;6.07;3.70;;;;;;;-145.41;100.00;58600.66;4948380;28;20026;-79
2023/06/11 01:10:40;;;;;;;8.00;3.80;;;;;;;-145.41;100.00;58600.66;4948040;28;20389;-79
2023/06/11 01:13:06;;;;;;;5.50;3.45;;;;;;;-145.41;100.00;58600.66;4962233;28;20034;-80
2023/06/11 01:15:31;;;;;;;5.90;3.30;;;;;;;-145.41;100.00;58600.66;4979649;28;20105;-80
2023/06/11 01:18:02;;;;;;;7.38;3.60;;;;;;;-145.41;100.00;58600.66;4960832;28;20062;-80
2023/06/11 01:20:55;;;;;;;7.10;3.45;;;;;;;-145.41;100.00;58600.66;4963896;28;20026;-79
2023/06/11 01:23:50;;;;;;;5.80;3.38;;;;;;;-145.41;100.00;58600.66;4973547;28;20042;-80
2023/06/11 01:26:28;;;;;;;9.43;3.55;;;;;;;-145.41;100.00;58600.66;4977319;28;20053;-79
2023/06/11 01:28:57;;;;;;;7.43;3.75;;;;;;;-145.41;100.00;58600.66;4975376;28;20122;-80
2023/06/11 01:31:25;;;;;;;7.32;3.88;;;;;;;-145.41;100.00;58600.66;4970388;28;20125;-80
2023/06/11 01:33:51;;;;;;;8.25;3.47;;;;;;;-145.41;100.00;58600.66;4960696;28;20069;-80
2023/06/11 01:36:24;;;;;;;5.95;3.60;;;;;;;-145.41;100.00;58600.66;4959331;28;20030;-80
2023/06/11 01:38:51;;;;;;;7.38;3.25;;;;;;;-145.41;100.00;58600.66;4959376;28;20039;-79
2023/06/11 01:41:41;;;;;;;5.95;3.13;;;;;;;-145.41;100.00;58600.66;4963859;28;20023;-79
2023/06/11 01:44:08;;;;;;;5.53;3.17;;;;;;;-145.41;100.00;58600.66;4955749;28;20066;-79
2023/06/11 01:46:33;;;;;;;7.90;3.53;;;;;;;-145.41;100.00;58600.66;4958904;28;20061;-80
2023/06/11 01:48:59;;;;;;;5.65;2.88;;;;;;;-145.41;100.00;58600.66;4944091;28;20027;-79
2023/06/11 01:51:25;;;;;;;9.50;3.88;;;;;;;-145.41;100.00;58600.66;4967061;28;20370;-79
2023/06/11 01:53:51;;;;;;;4.32;2.85;;;;;;;-145.41;100.00;58600.66;4975439;28;20475;-78
2023/06/11 01:56:16;;;;;;;5.25;3.08;;;;;;;-145.41;100.00;58600.66;4984405;23;20046;-78
2023/06/11 01:58:45;;;;;;;6.00;3.22;;;;;;;-145.41;100.00;58600.66;5025358;28;20087;-78
2023/06/11 02:01:12;;;;;;;6.68;3.22;;;;;;;-145.41;100.00;58600.66;5013963;28;20026;-77
2023/06/11 02:03:42;;;;;;;7.32;3.67;;;;;;;-145.41;100.00;58600.66;5041771;28;20037;-77
2023/06/11 02:06:08;;;;;;;4.82;3.00;;;;;;;-145.41;100.00;58600.66;5037175;28;20026;-77
2023/06/11 02:08:34;;;;;;;6.18;3.50;;;;;;;-145.41;100.00;58600.66;5030383;28;20373;-77
2023/06/11 02:10:59;;;;;;;4.53;2.90;;;;;;;-145.41;100.00;58600.66;5014166;28;20048;-77
2023/06/11 02:13:30;;;;;;;5.20;2.95;;;;;;;-145.41;100.00;58600.66;5029405;28;20049;-77
2023/06/11 02:15:59;;;;;;;5.60;2.88;;;;;;;-145.41;100.00;58600.66;5031091;28;20573;-77
2023/06/11 02:18:24;;;;;;;5.30;3.20;;;;;;;-145.41;100.00;58600.66;5019032;28;20381;-77
2023/06/11 02:20:50;;;;;;;5.85;2.80;;;;;;;-145.41;100.00;58600.66;5016458;28;20068;-77
2023/06/11 02:23:16;;;;;;;5.55;3.00;;;;;;;-145.41;100.00;58600.66;5030212;28;20108;-77
2023/06/11 02:25:41;;;;;;;7.10;3.40;;;;;;;-145.41;100.00;58600.66;5018839;28;20180;-77
2023/06/11 02:28:07;;;;;;;7.50;3.28;;;;;;;-145.41;100.00;58600.66;5030325;28;20031;-77
2023/06/11 02:30:32;;;;;;;4.80;3.17;;;;;;;-145.41;100.00;58600.66;5013900;28;20040;-77
2023/06/11 02:32:58;;;;;;;7.05;3.03;;;;;;;-145.41;100.00;58600.66;5032258;28;20038;-77
2023/06/11 02:35:24;;;;;;;4.75;2.92;;;;;;;-145.41;100.00;58600.66;5024491;28;20488;-77
2023/06/11 02:37:49;;;;;;;5.15;3.03;;;;;;;-145.41;100.00;58600.66;5031327;28;20041;-77
2023/06/11 02:40:15;;;;;;;8.63;3.70;;;;;;;-145.41;100.00;58600.66;5013376;28;20061;-77
2023/06/11 02:42:40;;;;;;;6.78;2.85;;;;;;;-145.41;100.00;58600.66;5031019;28;20026;-77
2023/06/11 02:45:06;;;;;;;5.75;2.95;;;;;;;-145.41;100.00;58600.66;5012824;28;20030;-77
2023/06/11 02:47:32;;;;;;;4.50;2.90;;;;;;;-145.41;100.00;58600.66;5031534;28;20064;-77
2023/06/11 02:49:57;;;;;;;8.18;3.35;;;;;;;-145.41;100.00;58600.66;5023234;28;20044;-77
2023/06/11 02:52:22;;;;;;;8.85;3.88;;;;;;;-145.41;100.00;58600.66;5014135;28;20035;-77
2023/06/11 02:54:48;;;;;;;7.68;3.25;;;;;;;-145.41;100.00;58600.66;5026858;28;20116;-77
2023/06/11 02:57:13;;;;;;;9.40;3.78;;;;;;;-145.41;100.00;58600.66;5023270;28;20061;-77
2023/06/11 02:59:38;;;;;;;6.80;3.00;;;;;;;-145.41;100.00;58600.66;5013448;28;20041;-76
2023/06/11 03:02:04;;;;;;;6.70;3.25;;;;;;;-145.41;100.00;58600.66;5016199;28;20059;-76
2023/06/11 03:04:30;;;;;;;7.22;3.50;;;;;;;-145.41;100.00;58600.66;5014024;28;20025;-77
2023/06/11 03:06:56;;;;;;;6.20;3.30;;;;;;;-145.41;100.00;58600.66;5024345;28;20021;-77
2023/06/11 03:09:24;;;;;;;4.90;3.10;;;;;;;-145.41;100.00;58600.66;5018995;28;20036;-77
2023/06/11 03:11:52;;;;;;;6.88;3.45;;;;;;;-145.41;100.00;58600.66;5031473;28;20025;-76
2023/06/11 03:14:20;;;;;;;8.05;3.40;;;;;;;-145.41;100.00;58600.66;5012692;28;20550;-77
2023/06/11 03:16:46;;;;;;;6.13;3.17;;;;;;;-145.41;100.00;58600.66;5013532;28;20029;-77
2023/06/11 03:19:11;;;;;;;5.63;3.30;;;;;;;-145.41;100.00;58600.66;5030808;28;20044;-77
2023/06/11 03:21:37;;;;;;;8.13;3.00;;;;;;;-145.41;100.00;58600.66;5027900;28;20033;-77
2023/06/11 03:24:03;;;;;;;7.13;3.35;;;;;;;-145.41;100.00;58600.66;5018315;28;20112;-77
2023/06/11 03:26:28;;;;;;;6.50;3.38;;;;;;;-145.41;100.00;58600.66;5029728;28;20033;-77
2023/06/11 03:28:53;;;;;;;9.60;3.72;;;;;;;-145.41;100.00;58600.66;5020414;28;20034;-77
2023/06/11 03:31:22;;;;;;;5.63;3.70;;;;;;;-145.41;100.00;58600.66;5009863;28;20029;-77
2023/06/11 03:33:48;;;;;;;7.43;3.47;;;;;;;-145.41;100.00;58600.66;5028782;28;20091;-77
2023/06/11 03:36:15;;;;;;;9.00;3.70;;;;;;;-145.41;100.00;58600.66;5024796;28;20116;-77
2023/06/11 03:38:40;;;;;;;5.13;3.28;;;;;;;-145.41;100.00;58600.66;5029012;28;20168;-77
2023/06/11 03:41:09;;;;;;;8.77;3.55;;;;;;;-145.41;100.00;58600.66;5033562;28;20037;-77
2023/06/11 03:43:35;;;;;;;5.28;3.10;;;;;;;-145.41;100.00;58600.66;4992327;28;20037;-77
2023/06/11 03:46:00;;;;;;;4.82;2.95;;;;;;;-145.41;100.00;58600.66;5016402;28;20029;-77
2023/06/11 03:48:26;;;;;;;6.20;3.63;;;;;;;-145.41;100.00;58600.66;5013089;28;20317;-77
2023/06/11 03:50:51;;;;;;;4.85;2.65;;;;;;;-145.41;100.00;58600.66;5027888;28;20400;-76
2023/06/11 03:53:17;;;;;;;7.18;4.05;;;;;;;-145.41;100.00;58600.66;5024469;28;20053;-77
2023/06/11 03:55:43;;;;;;;4.70;3.13;;;;;;;-145.41;100.00;58600.66;5022118;28;20040;-77
2023/06/11 03:58:09;;;;;;;6.13;3.22;;;;;;;-145.41;100.00;58600.66;5011301;28;20025;-77
2023/06/11 04:00:35;;;;;;;5.07;2.95;;;;;;;-145.41;100.00;58600.66;5007570;28;20025;-77
2023/06/11 04:03:00;;;;;;;6.47;3.10;;;;;;;-145.41;100.00;58600.66;4999982;28;20053;-77
2023/06/11 04:05:34;;;;;;;6.72;3.10;;;;;;;-145.41;100.00;58600.66;5014738;28;20029;-77
2023/06/11 04:07:59;;;;;;;7.57;3.00;;;;;;;-145.41;100.00;58600.66;5028256;28;20044;-77
2023/06/11 04:10:25;;;;;;;5.90;3.13;;;;;;;-145.41;100.00;58600.66;5010757;28;20025;-77
2023/06/11 04:12:50;;;;;;;6.30;3.30;;;;;;;-145.41;100.00;58600.66;5017127;28;20040;-77
2023/06/11 04:15:16;;;;;;;5.45;3.42;;;;;;;-145.41;100.00;58600.66;5030623;28;20143;-78
2023/06/11 04:17:43;;;;;;;5.65;3.17;;;;;;;-145.41;100.00;58600.66;5027315;28;20064;-77
2023/06/11 04:20:09;;;;;;;5.35;2.83;;;;;;;-145.41;100.00;58600.66;5020092;28;20064;-77
2023/06/11 04:22:35;;;;;;;5.70;3.25;;;;;;;-145.41;100.00;58600.66;5029452;28;20026;-78
2023/06/11 04:25:00;;;;;;;5.68;3.60;;;;;;;-145.41;100.00;58600.66;5012767;28;20622;-78
2023/06/11 04:27:26;;;;;;;6.10;3.10;;;;;;;-145.41;100.00;58600.66;5030344;28;20116;-77
2023/06/11 04:29:56;;;;;;;6.53;3.65;;;;;;;-145.41;100.00;58600.66;5024829;28;20124;-77
2023/06/11 04:32:26;;;;;;;6.00;3.42;;;;;;;-145.41;100.00;58600.66;5012130;28;20028;-78
2023/06/11 04:34:56;;;;;;;7.90;3.30;;;;;;;-145.41;100.00;58600.66;5011195;28;20508;-78
2023/06/11 04:37:24;;;;;;;6.22;3.25;;;;;;;-145.41;100.00;58600.66;5032210;28;20041;-77
2023/06/11 04:39:49;;;;;;;5.55;2.92;;;;;;;-145.41;100.00;58600.66;5015395;28;20025;-78
2023/06/11 04:42:17;;;;;;;5.10;2.88;;;;;;;-145.41;100.00;58600.66;5022920;28;20025;-78
2023/06/11 04:44:43;;;;;;;8.85;3.00;;;;;;;-145.41;100.00;58600.66;5019101;28;20032;-77
2023/06/11 04:47:10;;;;;;;6.50;3.33;;;;;;;-145.41;100.00;58600.66;5031915;28;20025;-77
2023/06/11 04:49:37;;;;;;;4.45;2.95;;;;;;;-145.41;100.00;58600.66;5015787;28;20040;-78
2023/06/11 04:52:03;;;;;;;6.00;3.03;;;;;;;-145.41;100.00;58600.66;5034289;28;20029;-77
2023/06/11 04:54:31;;;;;;;7.15;3.40;;;;;;;-145.41;100.00;58600.66;5031574;28;20494;-78
2023/06/11 04:57:00;;;;;;;9.07;3.30;;;;;;;-145.41;100.00;58600.66;5013865;28;20068;-78
2023/06/11 04:59:26;;;;;;;6.85;3.22;;;;;;;-145.41;100.00;58600.66;5009727;28;20164;-78
2023/06/11 05:01:53;;;;;;;5.43;3.20;;;;;;;-145.41;100.00;58600.66;5016008;28;20388;-77
2023/06/11 05:04:21;;;;;;;5.80;3.05;;;;;;;-145.41;100.00;58600.66;5028268;28;20397;-77
2023/06/11 05:06:46;;;;;;;11.13;3.90;;;;;;;-145.41;100.00;58600.66;5020859;28;20036;-77
2023/06/11 05:09:16;;;;;;;7.13;3.47;;;;;;;-145.41;100.00;58600.66;5033278;28;20512;-78
2023/06/11 05:11:43;;;;;;;7.15;3.08;;;;;;;-145.41;100.00;58600.66;5015785;28;20021;-78
2023/06/11 05:14:11;;;;;;;7.35;3.40;;;;;;;-145.41;100.00;58600.66;5017540;28;20026;-78
2023/06/11 05:16:37;;;;;;;6.68;3.20;;;;;;;-145.41;100.00;58600.66;5015680;28;21168;-78
2023/06/11 05:19:03;;;;;;;6.20;3.28;;;;;;;-145.41;100.00;58600.66;5030255;28;20176;-77
2023/06/11 05:21:28;;;;;;;5.88;3.00;;;;;;;-145.41;100.00;58600.66;5032061;28;20508;-77
2023/06/11 05:23:54;;;;;;;6.13;3.13;;;;;;;-145.41;100.00;58600.66;5031751;28;20030;-77
2023/06/11 05:26:31;;;;;;;8.20;3.60;;;;;;;-145.41;100.00;58600.66;5032121;28;20083;-78
2023/06/11 05:28:57;;;;;;;4.90;2.88;;;;;;;-145.41;100.00;58600.66;5014308;28;20040;-78
2023/06/11 05:31:23;;;;;;;7.85;3.38;;;;;;;-145.41;100.00;58600.66;5019669;28;20021;-77
2023/06/11 05:33:50;;;;;;;6.00;2.92;;;;;;;-145.41;100.00;58600.66;4997784;28;20080;-78
2023/06/11 05:36:16;;;;;;;5.15;3.10;;;;;;;-145.41;100.00;58600.66;5030162;28;20448;-78
2023/06/11 05:38:43;;;;;;;7.00;3.10;;;;;;;-145.41;100.00;58600.66;5015065;28;20036;-78
2023/06/11 05:41:09;;;;;;;5.55;2.80;;;;;;;-145.41;100.00;58600.66;5031803;28;20037;-77
2023/06/11 05:43:35;;;;;;;5.03;2.70;;;;;;;-145.41;100.00;58600.66;5032807;28;20411;-78
2023/06/11 05:46:01;;;;;;;5.85;2.65;;;;;;;-145.41;100.00;58600.66;5022496;28;20087;-78
2023/06/11 05:48:28;;;;;;;6.18;3.25;;;;;;;-145.41;100.00;58600.66;5027002;28;20044;-78
2023/06/11 05:50:54;;;;;;;4.75;2.65;;;;;;;-145.41;100.00;58600.66;5015501;28;20055;-78
2023/06/11 05:53:20;;;;;;;8.25;2.97;;;;;;;-145.41;100.00;58600.66;5032504;28;20163;-78
2023/06/11 05:55:46;;;;;;;8.43;3.72;;;;;;;-145.41;100.00;58600.66;5018042;28;20480;-78
2023/06/11 05:58:12;;;;;;;4.47;2.63;;;;;;;-145.41;100.00;58600.66;5018043;28;20034;-78
2023/06/11 06:00:37;;;;;;;5.57;2.78;;;;;;;-145.41;100.00;58600.66;5037342;28;20033;-78
2023/06/11 06:03:04;;;;;;;4.30;2.70;;;;;;;-145.41;100.00;58600.66;5029725;28;20055;-79
2023/06/11 06:05:31;;;;;;;6.38;3.00;;;;;;;-145.41;100.00;58600.66;5026011;28;20033;-79
2023/06/11 06:07:56;;;;;;;5.93;2.50;;;;;;;-145.41;100.00;58600.66;5015412;28;20025;-78
2023/06/11 06:10:22;;;;;;;6.07;2.72;;;;;;;-145.41;100.00;58600.66;5013938;28;20044;-78
2023/06/11 06:12:47;;;;;;;4.20;2.67;;;;;;;-145.41;100.00;58600.66;5033292;28;20052;-78
2023/06/11 06:15:13;;;;;;;4.78;2.55;;;;;;;-145.41;100.00;58600.66;5015168;28;20507;-78
2023/06/11 06:17:41;;;;;;;6.53;2.85;;;;;;;-145.41;100.00;58600.66;5025729;28;20030;-78
2023/06/11 06:20:10;;;;;;;6.72;2.60;;;;;;;-145.41;100.00;58600.66;5032236;28;20029;-78
2023/06/11 06:22:37;;;;;;;6.15;2.88;;;;;;;-145.41;100.00;58600.66;5023348;28;20033;-78
2023/06/11 06:25:03;;;;;;;4.68;2.85;;;;;;;-145.41;100.00;58600.66;5027186;28;20037;-79
2023/06/11 06:27:28;;;;;;;7.88;2.63;;;;;;;-145.41;100.00;58600.66;5023945;28;20025;-79
2023/06/11 06:29:54;;;;;;;6.80;2.75;;;;;;;-145.41;100.00;58600.66;4999565;28;20037;-79
2023/06/11 06:32:20;;;;;;;8.38;2.85;;;;;;;-145.41;100.00;58600.66;5015582;28;20029;-79
2023/06/11 06:34:45;;;;;;;7.30;3.28;;;;;;;-145.41;100.00;58600.66;5015753;28;20033;-79
2023/06/11 06:37:12;;;;;;;8.20;3.13;;;;;;;-145.41;100.00;58600.66;5032786;28;20116;-79
2023/06/11 06:39:40;;;;;;;6.03;2.75;;;;;;;-145.41;100.00;58600.66;5030396;28;20160;-79
2023/06/11 06:42:06;;;;;;;5.40;2.88;;;;;;;-145.41;100.00;58600.66;5015504;28;20129;-79
2023/06/11 06:44:39;;;;;;;6.82;3.00;;;;;;;-145.41;100.00;58600.66;5007880;28;20037;-80
2023/06/11 06:47:04;;;;;;;6.60;3.03;;;;;;;-145.41;100.00;58600.66;5012190;28;20040;-79
2023/06/11 06:49:30;;;;;;;8.20;3.20;;;;;;;-145.41;100.00;58600.66;5015034;28;20499;-79
2023/06/11 06:51:55;;;;;;;6.97;2.90;;;;;;;-145.41;100.00;58600.66;5020194;28;20048;-78
2023/06/11 06:54:21;;;;;;;7.25;3.50;;;;;;;-145.41;100.00;58600.66;5022900;28;20037;-79
2023/06/11 06:56:49;;;;;;;7.55;3.30;;;;;;;-145.41;100.00;58600.66;5019628;28;20396;-79
2023/06/11 06:59:16;;;;;;;8.98;3.38;;;;;;;-145.41;100.00;58600.66;5018239;28;20095;-79
2023/06/11 07:01:41;;;;;;;4.95;2.65;;;;;;;-145.41;100.00;58600.66;5022171;28;20041;-79
2023/06/11 07:04:07;;;;;;;8.00;3.03;;;;;;;-145.41;100.00;58600.66;5024600;28;20033;-79
2023/06/11 07:06:32;;;;;;;6.65;3.10;;;;;;;-145.41;100.00;58600.66;4998224;28;20407;-79
2023/06/11 07:08:58;;;;;;;8.55;2.70;;;;;;;-145.41;100.00;58600.66;5021368;28;20861;-79
2023/06/11 07:11:23;;;;;;;4.75;3.00;;;;;;;-145.41;100.00;58600.66;5032168;28;20065;-79
2023/06/11 07:13:48;;;;;;;9.65;3.28;;;;;;;-145.41;100.00;58600.66;5001115;28;20064;-79
2023/06/11 07:16:14;;;;;;;6.25;2.90;;;;;;;-145.41;100.00;58600.66;5015415;28;20133;-79
2023/06/11 07:18:44;;;;;;;9.80;3.30;;;;;;;-145.41;100.00;58600.66;5021909;28;20124;-80
2023/06/11 07:21:09;;;;;;;6.95;3.00;;;;;;;-145.41;100.00;58600.66;5018296;28;20568;-79
2023/06/11 07:23:35;;;;;;;5.95;2.70;;;;;;;-145.41;100.00;58600.66;5029715;28;20029;-79
2023/06/11 07:26:02;;;;;;;7.18;3.42;;;;;;;-145.41;100.00;58600.66;5014511;28;20028;-79
2023/06/11 07:28:28;;;;;;;7.43;3.15;;;;;;;-145.41;100.00;58600.66;5029407;28;20561;-79
2023/06/11 07:30:55;;;;;;;4.60;2.95;;;;;;;-145.41;100.00;58600.66;5013841;28;20036;-79
2023/06/11 07:33:21;;;;;;;5.35;3.30;;;;;;;-145.41;100.00;58600.66;5013599;28;20033;-79
2023/06/11 07:35:49;;;;;;;8.75;3.70;;;;;;;-145.41;100.00;58600.66;5024979;28;20029;-79
2023/06/11 07:38:16;;;;;;;4.35;3.33;;;;;;;-145.41;100.00;58600.66;5014175;28;20120;-79
2023/06/11 07:40:42;;;;;;;8.00;3.70;;;;;;;-145.41;100.00;58600.66;5013636;28;20462;-79
2023/06/11 07:43:07;;;;;;;7.97;3.53;;;;;;;-145.41;100.00;58600.66;5034748;28;20025;-79
2023/06/11 07:45:34;;;;;;;6.72;3.40;;;;;;;-145.41;100.00;58600.66;5024465;28;20033;-79
2023/06/11 07:48:00;;;;;;;5.70;3.53;;;;;;;-145.41;100.00;58600.66;5004924;28;20033;-79
2023/06/11 07:50:26;;;;;;;6.03;3.67;;;;;;;-145.41;100.00;58600.66;4996930;28;20033;-79
2023/06/11 07:52:52;;;;;;;8.75;3.83;;;;;;;-145.41;100.00;58600.66;5030562;28;20036;-79
2023/06/11 07:55:22;;;;;;;7.60;3.53;;;;;;;-145.41;100.00;58600.66;5030471;28;20071;-79
2023/06/11 07:57:48;;;;;;;5.00;3.08;;;;;;;-145.41;100.00;58600.66;5032076;28;20047;-79
2023/06/11 08:00:15;;;;;;;8.30;4.05;;;;;;;-145.41;100.00;58600.66;5027600;28;20033;-79
2023/06/11 08:02:41;;;;;;;6.57;3.13;;;;;;;-145.41;100.00;58600.66;5026575;28;20068;-79
2023/06/11 08:05:07;;;;;;;8.50;3.97;;;;;;;-145.41;100.00;58600.66;5032092;28;20044;-79
2023/06/11 08:07:32;;;;;;;6.53;3.28;;;;;;;-145.41;100.00;58600.66;5026977;28;20090;-79
2023/06/11 08:09:57;;;;;;;5.63;2.97;;;;;;;-145.41;100.00;58600.66;5031126;28;20454;-79
2023/06/11 08:12:23;;;;;;;5.80;3.20;;;;;;;-145.41;100.00;58600.66;5033108;28;20028;-79
2023/06/11 08:14:48;;;;;;;7.22;3.55;;;;;;;-145.41;100.00;58600.66;5036473;28;20043;-79
2023/06/11 08:17:14;;;;;;;4.65;3.10;;;;;;;-145.41;100.00;58600.66;5037655;28;20037;-79
2023/06/11 08:19:39;;;;;;;10.52;3.50;;;;;;;-145.41;100.00;58600.66;5035588;28;20041;-79
2023/06/11 08:22:04;;;;;;;5.68;3.33;;;;;;;-145.41;100.00;58600.66;5033513;28;20042;-79
2023/06/11 08:24:30;;;;;;;6.53;4.13;;;;;;;-145.41;100.00;58600.66;5037199;28;20064;-79
2023/06/11 08:26:56;;;;;;;5.28;3.67;;;;;;;-145.41;100.00;58600.66;5037303;28;20034;-79
2023/06/11 08:29:21;;;;;;;5.60;3.80;;;;;;;-145.41;100.00;58600.66;5035217;28;20047;-79
2023/06/11 08:31:46;;;;;;;5.45;3.80;;;;;;;-145.41;100.00;58600.66;5035607;28;20040;-79
2023/06/11 08:34:12;;;;;;;5.57;3.42;;;;;;;-145.41;100.00;58600.66;5029091;28;20108;-79
2023/06/11 08:36:38;;;;;;;5.00;3.55;;;;;;;-145.41;100.00;58600.66;5018840;28;20068;-79
2023/06/11 08:39:03;;;;;;;6.88;3.80;;;;;;;-145.41;100.00;58600.66;5030593;28;20476;-79
2023/06/11 08:41:29;;;;;;;7.00;3.50;;;;;;;-145.41;100.00;58600.66;5018980;28;20029;-79
2023/06/11 08:43:56;;;;;;;7.40;3.03;;;;;;;-145.41;100.00;58600.66;5037266;28;21000;-79
2023/06/11 08:46:23;;;;;;;5.55;3.60;;;;;;;-145.41;100.00;58600.66;5036170;28;20029;-79
2023/06/11 08:48:57;;;;;;;6.75;3.45;;;;;;;-145.41;100.00;58600.66;5018175;28;20044;-79
2023/06/11 08:51:25;;;;;;;4.40;3.38;;;;;;;-145.41;100.00;58600.66;5034999;28;20067;-79
2023/06/11 08:53:52;;;;;;;8.07;3.88;;;;;;;-145.41;100.00;58600.66;5025998;28;20044;-79
2023/06/11 08:56:17;;;;;;;7.00;3.67;;;;;;;-145.41;100.00;58600.66;5023752;28;20120;-79
2023/06/11 08:58:44;;;;;;;5.82;4.03;;;;;;;-145.41;100.00;58600.66;5029871;28;20203;-79
2023/06/11 09:01:11;;;;;;;5.72;3.85;;;;;;;-145.41;100.00;58600.66;5033106;28;20124;-79
2023/06/11 09:03:37;;;;;;;6.03;3.90;;;;;;;-145.41;100.00;58600.66;5002029;28;20033;-79
2023/06/11 09:06:02;;;;;;;6.22;4.00;;;;;;;-145.41;100.00;58600.66;5033493;28;20087;-79
2023/06/11 09:08:28;;;;;;;5.18;3.85;;;;;;;-145.41;100.00;58600.66;5036026;28;20075;-79
2023/06/11 09:10:54;;;;;;;7.05;4.20;;;;;;;-145.41;100.00;58600.66;5018465;28;20034;-79
2023/06/11 09:13:24;;;;;;;6.35;4.20;;;;;;;-145.41;100.00;58600.66;5036290;28;20034;-79
2023/06/11 09:15:55;;;;;;;5.50;3.67;;;;;;;-145.41;100.00;58600.66;5034749;28;20695;-79
2023/06/11 09:18:22;;;;;;;5.53;4.10;;;;;;;-145.41;100.00;58600.66;5018326;28;20036;-79
2023/06/11 09:20:56;;;;;;;4.20;3.65;;;;;;;-145.41;100.00;58600.66;5035412;28;20241;-79
2023/06/11 09:23:31;;;;;;;5.10;3.30;;;;;;;-145.41;100.00;58600.66;5010115;28;20030;-79
2023/06/11 09:25:58;;;;;;;5.53;3.88;;;;;;;-145.41;100.00;58600.66;5015155;28;20041;-79
2023/06/11 09:28:28;;;;;;;4.82;3.83;;;;;;;-145.41;100.00;58600.66;5017334;28;20500;-79
2023/06/11 09:30:55;;;;;;;5.43;3.42;;;;;;;-145.41;100.00;58600.66;5023524;28;20488;-79
2023/06/11 09:33:21;;;;;;;6.50;3.95;;;;;;;-145.41;100.00;58600.66;5034008;28;20047;-79
2023/06/11 09:35:46;;;;;;;5.45;3.70;;;;;;;-145.41;100.00;58600.66;5032938;28;20116;-79
2023/06/11 09:38:16;;;;;;;4.57;3.42;;;;;;;-145.41;100.00;58600.66;5004306;28;20057;-79
2023/06/11 09:40:46;;;;;;;5.03;3.60;;;;;;;-145.41;100.00;58600.66;5034022;28;20030;-79
2023/06/11 09:43:12;;;;;;;5.22;3.75;;;;;;;-145.41;100.00;58600.66;5034581;28;20029;-79
2023/06/11 09:45:38;;;;;;;5.10;3.58;;;;;;;-145.41;100.00;58600.66;5018285;28;20079;-79
2023/06/11 09:48:04;;;;;;;6.68;4.07;;;;;;;-145.41;100.00;58600.66;5035573;28;20044;-79
2023/06/11 09:50:32;;;;;;;6.53;3.38;;;;;;;-145.41;100.00;58600.66;5017466;28;20025;-79
2023/06/11 09:53:02;;;;;;;5.35;3.60;;;;;;;-145.41;100.00;58600.66;5017917;28;20037;-79
2023/06/11 09:55:30;;;;;;;5.00;3.05;;;;;;;-145.41;100.00;58600.66;5024901;28;20556;-79
2023/06/11 09:57:56;;;;;;;11.55;3.90;;;;;;;-145.41;100.00;58600.66;5017868;28;20471;-79
2023/06/11 10:00:22;;;;;;;5.68;3.75;;;;;;;-145.41;100.00;58600.66;5016148;28;20040;-79
2023/06/11 10:02:47;;;;;;;5.43;3.80;;;;;;;-145.41;100.00;58600.66;5030980;28;20040;-78
2023/06/11 10:05:14;;;;;;;7.35;3.60;;;;;;;-145.41;100.00;58600.66;5034817;28;20112;-79
2023/06/11 10:07:46;;;;;;;4.50;3.65;;;;;;;-145.41;100.00;58600.66;5032236;28;20037;-79
2023/06/11 10:10:15;;;;;;;6.25;4.15;;;;;;;-145.41;100.00;58600.66;5034341;28;20041;-79
2023/06/11 10:12:40;;;;;;;5.65;3.85;;;;;;;-145.41;100.00;58600.66;5021187;28;20037;-79
2023/06/11 10:15:10;;;;;;;5.57;4.00;;;;;;;-145.41;100.00;58600.66;5032028;28;20403;-79
2023/06/11 10:17:35;;;;;;;5.80;3.90;;;;;;;-145.41;100.00;58600.66;5029949;28;20026;-79
2023/06/11 10:20:01;;;;;;;6.65;4.15;;;;;;;-145.41;100.00;58600.66;5033648;28;20716;-79
2023/06/11 10:22:35;;;;;;;5.07;3.78;;;;;;;-145.41;100.00;58600.66;5034829;28;20675;-79
2023/06/11 10:25:02;;;;;;;4.78;3.30;;;;;;;-145.41;100.00;58600.66;5014451;28;20045;-79
2023/06/11 10:27:38;;;;;;;5.05;3.70;;;;;;;-145.41;100.00;58600.66;5034230;28;20112;-79
2023/06/11 10:30:08;;;;;;;5.75;3.63;;;;;;;-145.41;100.00;58600.66;5014868;28;20384;-79
2023/06/11 10:32:33;;;;;;;5.80;3.63;;;;;;;-145.41;100.00;58600.66;5016814;28;20021;-79
2023/06/11 10:35:04;;;;;;;5.88;3.78;;;;;;;-145.41;100.00;58600.66;5034512;28;20653;-79
2023/06/11 10:37:31;;;;;;;5.45;3.88;;;;;;;-145.41;100.00;58600.66;5030663;28;20037;-79
2023/06/11 10:39:57;;;;;;;7.18;4.25;;;;;;;-145.41;100.00;58600.66;5033981;28;20098;-79
2023/06/11 10:42:23;;;;;;;5.13;4.28;;;;;;;-145.41;100.00;58600.66;5034529;28;20108;-79
2023/06/11 10:44:49;;;;;;;4.63;3.75;;;;;;;-145.41;100.00;58600.66;5034139;28;20044;-79
2023/06/11 10:47:14;;;;;;;5.82;3.90;;;;;;;-145.41;100.00;58600.66;5016426;28;20033;-79
2023/06/11 10:49:40;;;;;;;5.97;3.83;;;;;;;-145.41;100.00;58600.66;5032857;28;20521;-79
2023/06/11 10:52:05;;;;;;;6.55;4.03;;;;;;;-145.41;100.00;58600.66;5028884;28;20088;-79
2023/06/11 10:54:35;;;;;;;5.82;4.10;;;;;;;-145.41;100.00;58600.66;5031374;28;20083;-79
2023/06/11 10:57:01;;;;;;;4.80;3.83;;;;;;;-145.41;100.00;58600.66;5031347;28;20567;-79
2023/06/11 10:59:27;;;;;;;6.88;4.32;;;;;;;-145.41;100.00;58600.66;5033722;28;20033;-79
2023/06/11 11:01:54;;;;;;;4.28;3.63;;;;;;;-145.41;100.00;58600.66;5032975;28;20393;-79
2023/06/11 11:04:21;;;;;;;6.20;3.35;;;;;;;-145.41;100.00;58600.66;5034285;28;20033;-79
2023/06/11 11:06:47;;;;;;;5.00;3.50;;;;;;;-145.41;100.00;58600.66;5031038;28;20103;-79
2023/06/11 11:09:20;;;;;;;4.22;3.60;;;;;;;-145.41;100.00;58600.66;5016253;28;20040;-79